PWSweather.com
Personal Weather Stations
Station Observations
DEKREUPEL
Wsv De Kreupel, AndijkNL 1619 JV

Wsv De KreupelAndijkNL 1619 JV

Lat: 52.7417364, Lon: 5.1809356

Elevation: 33

Station Type: Rainwise MKiii LR

High Low Average
Temperature 62.3°F16.8°F 54.2°F12.3°F 58.8°F14.9°F
Dew Point 90.5°F32.5°F 81.4°F27.4°F 86.6°F30.3°F
Winds 12.4 mph N20.0 mph N Calm Calm 3.9 mph 6.3 mph
Wind Gusts 13.9 mph22.4 mph -- 4.7 mph7.6 mph
Humidity 0% 0% 0%
Pressure 30.32 in1026.80 in 30.18 in1022.00 in -
Precipitation 0.00 in0.00 in - -
Hour Temp Dew Point Humidity Winds Wind Gusts Pressure Precip Precip Rate Daily Precip Total
12:04 AM 57.2°F14.0°C 84.8°F29.3°C - 3.1 mph SSE5.0 kmh SSE 5.1 mph8.2 kmh 30.20 in1022.7 mb 0.00 in0.0 mm 0.00 in0.0 mm 0.00 in0.0 mm
12:09 AM 57.3°F14.1°C 84.9°F29.4°C - 3.3 mph SSE5.3 kmh SSE 4.6 mph7.4 kmh 30.20 in1022.7 mb 0.00 in0.0 mm 0.00 in0.0 mm 0.00 in0.0 mm
12:14 AM 57.3°F14.1°C 84.9°F29.4°C - 3.1 mph SSE5.0 kmh SSE 4.4 mph7.1 kmh 30.20 in1022.7 mb 0.00 in0.0 mm 0.00 in0.0 mm 0.00 in0.0 mm
12:20 AM 57.3°F14.1°C 84.9°F29.4°C - 3.6 mph SE5.8 kmh SE 4.8 mph7.7 kmh 30.20 in1022.7 mb 0.00 in0.0 mm 0.00 in0.0 mm 0.00 in0.0 mm
12:24 AM 57.2°F14.0°C 84.8°F29.3°C - 3.3 mph SE5.3 kmh SE 4.6 mph7.4 kmh 30.20 in1022.7 mb 0.00 in0.0 mm 0.00 in0.0 mm 0.00 in0.0 mm
12:29 AM 57.2°F14.0°C 84.8°F29.3°C - 2.8 mph SSE4.5 kmh SSE 3.5 mph5.6 kmh 30.20 in1022.7 mb 0.00 in0.0 mm 0.00 in0.0 mm 0.00 in0.0 mm
12:34 AM 57.2°F14.0°C 84.8°F29.3°C - 2.3 mph SSE3.7 kmh SSE 3.1 mph5.0 kmh 30.20 in1022.7 mb 0.00 in0.0 mm 0.00 in0.0 mm 0.00 in0.0 mm
12:39 AM 57.2°F14.0°C 84.8°F29.3°C - 3.0 mph SSE4.8 kmh SSE 3.7 mph6.0 kmh 30.20 in1022.7 mb 0.00 in0.0 mm 0.00 in0.0 mm 0.00 in0.0 mm
12:44 AM 57.2°F14.0°C 84.8°F29.3°C - 2.6 mph SSE4.2 kmh SSE 3.5 mph5.6 kmh 30.20 in1022.7 mb 0.00 in0.0 mm 0.00 in0.0 mm 0.00 in0.0 mm
12:49 AM 57.2°F14.0°C 84.8°F29.3°C - 2.8 mph SSE4.5 kmh SSE 4.0 mph6.4 kmh 30.20 in1022.7 mb 0.00 in0.0 mm 0.00 in0.0 mm 0.00 in0.0 mm
12:54 AM 57.2°F14.0°C 84.8°F29.3°C - 2.9 mph SE4.7 kmh SE 4.1 mph6.6 kmh 30.20 in1022.7 mb 0.00 in0.0 mm 0.00 in0.0 mm 0.00 in0.0 mm
12:59 AM 57.1°F13.9°C 84.6°F29.2°C - 3.7 mph SE6.0 kmh SE 4.8 mph7.7 kmh 30.20 in1022.7 mb 0.00 in0.0 mm 0.00 in0.0 mm 0.00 in0.0 mm
01:04 AM 57.0°F13.9°C 84.6°F29.2°C - 3.1 mph SE5.0 kmh SE 4.3 mph6.9 kmh 30.20 in1022.7 mb 0.00 in0.0 mm 0.00 in0.0 mm 0.00 in0.0 mm
01:09 AM 56.8°F13.8°C 84.2°F29.0°C - 2.9 mph SSE4.7 kmh SSE 4.2 mph6.8 kmh 30.20 in1022.7 mb 0.00 in0.0 mm 0.00 in0.0 mm 0.00 in0.0 mm
01:14 AM 57.0°F13.9°C 84.6°F29.2°C - 3.2 mph SE5.1 kmh SE 4.5 mph7.2 kmh 30.20 in1022.7 mb 0.00 in0.0 mm 0.00 in0.0 mm 0.00 in0.0 mm
01:19 AM 57.0°F13.9°C 84.4°F29.1°C - 3.3 mph SSE5.3 kmh SSE 4.7 mph7.6 kmh 30.20 in1022.7 mb 0.00 in0.0 mm 0.00 in0.0 mm 0.00 in0.0 mm
01:24 AM 57.1°F13.9°C 84.7°F29.3°C - 3.2 mph SE5.1 kmh SE 4.4 mph7.1 kmh 30.20 in1022.7 mb 0.00 in0.0 mm 0.00 in0.0 mm 0.00 in0.0 mm
01:29 AM 57.2°F14.0°C 84.8°F29.3°C - 3.0 mph SSE4.8 kmh SSE 3.7 mph6.0 kmh 30.20 in1022.7 mb 0.00 in0.0 mm 0.00 in0.0 mm 0.00 in0.0 mm
01:34 AM 57.2°F14.0°C 84.8°F29.3°C - 3.0 mph SSE4.8 kmh SSE 4.3 mph6.9 kmh 30.20 in1022.7 mb 0.00 in0.0 mm 0.00 in0.0 mm 0.00 in0.0 mm
01:39 AM 57.2°F14.0°C 84.8°F29.3°C - 3.1 mph SE5.0 kmh SE 4.4 mph7.1 kmh 30.20 in1022.7 mb 0.00 in0.0 mm 0.00 in0.0 mm 0.00 in0.0 mm
01:44 AM 57.2°F14.0°C 84.7°F29.3°C - 3.2 mph S5.1 kmh S 4.5 mph7.2 kmh 30.20 in1022.7 mb 0.00 in0.0 mm 0.00 in0.0 mm 0.00 in0.0 mm
01:49 AM 57.2°F14.0°C 84.8°F29.3°C - 3.3 mph SSE5.3 kmh SSE 4.3 mph6.9 kmh 30.20 in1022.7 mb 0.00 in0.0 mm 0.00 in0.0 mm 0.00 in0.0 mm
01:54 AM 57.2°F14.0°C 84.8°F29.3°C - 3.4 mph SSE5.5 kmh SSE 4.8 mph7.7 kmh 30.20 in1022.7 mb 0.00 in0.0 mm 0.00 in0.0 mm 0.00 in0.0 mm
01:59 AM 57.2°F14.0°C 84.8°F29.3°C - 3.1 mph SSE5.0 kmh SSE 4.3 mph6.9 kmh 30.19 in1022.4 mb 0.00 in0.0 mm 0.00 in0.0 mm 0.00 in0.0 mm
02:04 AM 57.1°F13.9°C 84.6°F29.2°C - 2.8 mph SSE4.5 kmh SSE 3.9 mph6.3 kmh 30.19 in1022.4 mb 0.00 in0.0 mm 0.00 in0.0 mm 0.00 in0.0 mm
02:09 AM 57.1°F13.9°C 84.7°F29.3°C - 2.9 mph SSE4.7 kmh SSE 4.1 mph6.6 kmh 30.19 in1022.4 mb 0.00 in0.0 mm 0.00 in0.0 mm 0.00 in0.0 mm
02:14 AM 57.0°F13.9°C 84.6°F29.2°C - 3.1 mph SSE5.0 kmh SSE 4.0 mph6.4 kmh 30.19 in1022.4 mb 0.00 in0.0 mm 0.00 in0.0 mm 0.00 in0.0 mm
02:19 AM 57.0°F13.9°C 84.6°F29.2°C - 3.2 mph SSE5.1 kmh SSE 4.2 mph6.8 kmh 30.19 in1022.4 mb 0.00 in0.0 mm 0.00 in0.0 mm 0.00 in0.0 mm
02:24 AM 57.0°F13.9°C 84.6°F29.2°C - 2.9 mph SSE4.7 kmh SSE 3.7 mph6.0 kmh 30.19 in1022.4 mb 0.00 in0.0 mm 0.00 in0.0 mm 0.00 in0.0 mm
02:29 AM 57.0°F13.9°C 84.6°F29.2°C - 2.9 mph SSE4.7 kmh SSE 3.4 mph5.5 kmh 30.19 in1022.4 mb 0.00 in0.0 mm 0.00 in0.0 mm 0.00 in0.0 mm
02:34 AM 57.0°F13.9°C 84.6°F29.2°C - 2.7 mph SSE4.3 kmh SSE 3.4 mph5.5 kmh 30.19 in1022.4 mb 0.00 in0.0 mm 0.00 in0.0 mm 0.00 in0.0 mm
02:39 AM 56.8°F13.8°C 84.3°F29.1°C - 2.3 mph SSE3.7 kmh SSE 2.9 mph4.7 kmh 30.19 in1022.4 mb 0.00 in0.0 mm 0.00 in0.0 mm 0.00 in0.0 mm
02:44 AM 56.7°F13.7°C 84.2°F29.0°C - 2.9 mph SSW4.7 kmh SSW 3.4 mph5.5 kmh 30.19 in1022.4 mb 0.00 in0.0 mm 0.00 in0.0 mm 0.00 in0.0 mm
02:49 AM 56.7°F13.7°C 84.2°F29.0°C - 2.7 mph S4.3 kmh S 3.3 mph5.3 kmh 30.19 in1022.4 mb 0.00 in0.0 mm 0.00 in0.0 mm 0.00 in0.0 mm
02:54 AM 56.6°F13.7°C 84.1°F28.9°C - 3.1 mph S5.0 kmh S 3.6 mph5.8 kmh 30.19 in1022.4 mb 0.00 in0.0 mm 0.00 in0.0 mm 0.00 in0.0 mm
02:59 AM 56.7°F13.7°C 84.2°F29.0°C - 3.4 mph S5.5 kmh S 4.1 mph6.6 kmh 30.19 in1022.4 mb 0.00 in0.0 mm 0.00 in0.0 mm 0.00 in0.0 mm
03:04 AM 56.7°F13.7°C 84.2°F29.0°C - 3.6 mph S5.8 kmh S 4.2 mph6.8 kmh 30.19 in1022.4 mb 0.00 in0.0 mm 0.00 in0.0 mm 0.00 in0.0 mm
03:09 AM 56.7°F13.7°C 84.1°F28.9°C - 0.7 mph SSW1.1 kmh SSW 1.2 mph1.9 kmh 30.19 in1022.4 mb 0.00 in0.0 mm 0.00 in0.0 mm 0.00 in0.0 mm
03:14 AM 56.7°F13.7°C 84.1°F28.9°C - Calm Calm -- 30.19 in1022.4 mb 0.00 in0.0 mm 0.00 in0.0 mm 0.00 in0.0 mm
03:19 AM 56.7°F13.7°C 84.2°F29.0°C - Calm Calm -- 30.19 in1022.4 mb 0.00 in0.0 mm 0.00 in0.0 mm 0.00 in0.0 mm
03:24 AM 56.7°F13.7°C 84.2°F29.0°C - Calm Calm -- 30.19 in1022.4 mb 0.00 in0.0 mm 0.00 in0.0 mm 0.00 in0.0 mm
03:29 AM 56.7°F13.7°C 84.1°F28.9°C - Calm Calm -- 30.19 in1022.4 mb 0.00 in0.0 mm 0.00 in0.0 mm 0.00 in0.0 mm
03:34 AM 56.7°F13.7°C 84.1°F28.9°C - Calm Calm -- 30.19 in1022.4 mb 0.00 in0.0 mm 0.00 in0.0 mm 0.00 in0.0 mm
03:39 AM 56.6°F13.7°C 84.1°F28.9°C - Calm Calm -- 30.19 in1022.4 mb 0.00 in0.0 mm 0.00 in0.0 mm 0.00 in0.0 mm
03:44 AM 56.6°F13.7°C 84.1°F28.9°C - Calm Calm -- 30.19 in1022.4 mb 0.00 in0.0 mm 0.00 in0.0 mm 0.00 in0.0 mm
03:49 AM 56.6°F13.7°C 84.1°F28.9°C - Calm Calm -- 30.19 in1022.4 mb 0.00 in0.0 mm 0.00 in0.0 mm 0.00 in0.0 mm
03:54 AM 56.5°F13.6°C 84.0°F28.9°C - Calm Calm -- 30.19 in1022.4 mb 0.00 in0.0 mm 0.00 in0.0 mm 0.00 in0.0 mm
03:59 AM 56.5°F13.6°C 84.0°F28.9°C - Calm Calm -- 30.19 in1022.4 mb 0.00 in0.0 mm 0.00 in0.0 mm 0.00 in0.0 mm
04:04 AM 56.5°F13.6°C 84.0°F28.9°C - Calm Calm -- 30.19 in1022.4 mb 0.00 in0.0 mm 0.00 in0.0 mm 0.00 in0.0 mm
04:09 AM 56.5°F13.6°C 83.9°F28.8°C - Calm Calm -- 30.19 in1022.4 mb 0.00 in0.0 mm 0.00 in0.0 mm 0.00 in0.0 mm
04:14 AM 56.5°F13.6°C 84.0°F28.9°C - Calm Calm -- 30.19 in1022.4 mb 0.00 in0.0 mm 0.00 in0.0 mm 0.00 in0.0 mm
04:19 AM 56.5°F13.6°C 84.0°F28.9°C - Calm Calm -- 30.18 in1022.0 mb 0.00 in0.0 mm 0.00 in0.0 mm 0.00 in0.0 mm
04:24 AM 56.4°F13.6°C 83.9°F28.8°C - Calm Calm -- 30.19 in1022.4 mb 0.00 in0.0 mm 0.00 in0.0 mm 0.00 in0.0 mm
04:29 AM 56.3°F13.5°C 83.8°F28.8°C - Calm Calm -- 30.18 in1022.0 mb 0.00 in0.0 mm 0.00 in0.0 mm 0.00 in0.0 mm
04:34 AM 56.3°F13.5°C 83.8°F28.8°C - Calm Calm -- 30.18 in1022.0 mb 0.00 in0.0 mm 0.00 in0.0 mm 0.00 in0.0 mm
04:39 AM 56.3°F13.5°C 83.8°F28.8°C - Calm Calm -- 30.18 in1022.0 mb 0.00 in0.0 mm 0.00 in0.0 mm 0.00 in0.0 mm
04:45 AM 56.2°F13.4°C 83.7°F28.7°C - Calm Calm 0.3 mph0.5 kmh 30.18 in1022.0 mb 0.00 in0.0 mm 0.00 in0.0 mm 0.00 in0.0 mm
04:49 AM 56.2°F13.4°C 83.7°F28.7°C - Calm Calm -- 30.18 in1022.0 mb 0.00 in0.0 mm 0.00 in0.0 mm 0.00 in0.0 mm
04:54 AM 56.2°F13.4°C 83.7°F28.7°C - Calm Calm -- 30.18 in1022.0 mb 0.00 in0.0 mm 0.00 in0.0 mm 0.00 in0.0 mm
04:59 AM 56.2°F13.4°C 83.5°F28.6°C - Calm Calm -- 30.18 in1022.0 mb 0.00 in0.0 mm 0.00 in0.0 mm 0.00 in0.0 mm
05:04 AM 56.2°F13.4°C 83.7°F28.7°C - Calm Calm 0.6 mph1.0 kmh 30.18 in1022.0 mb 0.00 in0.0 mm 0.00 in0.0 mm 0.00 in0.0 mm
05:09 AM 56.1°F13.4°C 83.5°F28.6°C - Calm Calm -- 30.18 in1022.0 mb 0.00 in0.0 mm 0.00 in0.0 mm 0.00 in0.0 mm
05:14 AM 56.0°F13.3°C 83.3°F28.5°C - Calm Calm -- 30.18 in1022.0 mb 0.00 in0.0 mm 0.00 in0.0 mm 0.00 in0.0 mm
05:19 AM 56.1°F13.4°C 83.4°F28.6°C - 0.5 mph SSW0.8 kmh SSW 3.4 mph5.5 kmh 30.18 in1022.0 mb 0.00 in0.0 mm 0.00 in0.0 mm 0.00 in0.0 mm
05:24 AM 56.2°F13.4°C 83.7°F28.7°C - Calm Calm 0.3 mph0.5 kmh 30.18 in1022.0 mb 0.00 in0.0 mm 0.00 in0.0 mm 0.00 in0.0 mm
05:29 AM 56.2°F13.4°C 83.7°F28.7°C - 2.3 mph S3.7 kmh S 4.7 mph7.6 kmh 30.18 in1022.0 mb 0.00 in0.0 mm 0.00 in0.0 mm 0.00 in0.0 mm
05:34 AM 56.2°F13.4°C 83.7°F28.7°C - 4.1 mph S6.6 kmh S 5.2 mph8.4 kmh 30.18 in1022.0 mb 0.00 in0.0 mm 0.00 in0.0 mm 0.00 in0.0 mm
05:39 AM 56.2°F13.4°C 83.7°F28.7°C - 3.9 mph SSE6.3 kmh SSE 5.1 mph8.2 kmh 30.18 in1022.0 mb 0.00 in0.0 mm 0.00 in0.0 mm 0.00 in0.0 mm
05:44 AM 56.1°F13.4°C 83.5°F28.6°C - 4.5 mph SSE7.2 kmh SSE 5.2 mph8.4 kmh 30.18 in1022.0 mb 0.00 in0.0 mm 0.00 in0.0 mm 0.00 in0.0 mm
05:49 AM 56.1°F13.4°C 83.5°F28.6°C - 3.9 mph S6.3 kmh S 5.0 mph8.0 kmh 30.18 in1022.0 mb 0.00 in0.0 mm 0.00 in0.0 mm 0.00 in0.0 mm
05:54 AM 56.0°F13.3°C 83.4°F28.6°C - 3.3 mph SSE5.3 kmh SSE 4.6 mph7.4 kmh 30.18 in1022.0 mb 0.00 in0.0 mm 0.00 in0.0 mm 0.00 in0.0 mm
05:59 AM 55.9°F13.3°C 83.3°F28.5°C - 2.1 mph SSE3.4 kmh SSE 3.9 mph6.3 kmh 30.18 in1022.0 mb 0.00 in0.0 mm 0.00 in0.0 mm 0.00 in0.0 mm
06:04 AM 55.7°F13.2°C 83.1°F28.4°C - 0.8 mph SSE1.3 kmh SSE 1.5 mph2.4 kmh 30.18 in1022.0 mb 0.00 in0.0 mm 0.00 in0.0 mm 0.00 in0.0 mm
06:09 AM 55.7°F13.2°C 83.1°F28.4°C - Calm Calm -- 30.18 in1022.0 mb 0.00 in0.0 mm 0.00 in0.0 mm 0.00 in0.0 mm
06:14 AM 55.7°F13.2°C 83.0°F28.3°C - Calm Calm -- 30.19 in1022.4 mb 0.00 in0.0 mm 0.00 in0.0 mm 0.00 in0.0 mm
06:19 AM 55.7°F13.2°C 83.1°F28.4°C - Calm Calm 0.7 mph1.1 kmh 30.19 in1022.4 mb 0.00 in0.0 mm 0.00 in0.0 mm 0.00 in0.0 mm
06:24 AM 55.6°F13.1°C 83.0°F28.3°C - 0.2 mph S0.3 kmh S 1.2 mph1.9 kmh 30.19 in1022.4 mb 0.00 in0.0 mm 0.00 in0.0 mm 0.00 in0.0 mm
06:29 AM 55.7°F13.2°C 83.1°F28.4°C - 3.0 mph SSW4.8 kmh SSW 5.2 mph8.4 kmh 30.19 in1022.4 mb 0.00 in0.0 mm 0.00 in0.0 mm 0.00 in0.0 mm
06:34 AM 55.8°F13.2°C 83.2°F28.4°C - 4.4 mph SSW7.1 kmh SSW 5.3 mph8.5 kmh 30.19 in1022.4 mb 0.00 in0.0 mm 0.00 in0.0 mm 0.00 in0.0 mm
06:39 AM 56.0°F13.3°C 83.4°F28.6°C - 4.3 mph S6.9 kmh S 5.1 mph8.2 kmh 30.19 in1022.4 mb 0.00 in0.0 mm 0.00 in0.0 mm 0.00 in0.0 mm
06:44 AM 56.1°F13.4°C 83.5°F28.6°C - 4.3 mph S6.9 kmh S 5.0 mph8.0 kmh 30.19 in1022.4 mb 0.00 in0.0 mm 0.00 in0.0 mm 0.00 in0.0 mm
06:49 AM 56.2°F13.4°C 83.7°F28.7°C - 4.3 mph S6.9 kmh S 5.5 mph8.9 kmh 30.19 in1022.4 mb 0.00 in0.0 mm 0.00 in0.0 mm 0.00 in0.0 mm
06:54 AM 56.2°F13.4°C 83.7°F28.7°C - 4.2 mph S6.8 kmh S 5.1 mph8.2 kmh 30.19 in1022.4 mb 0.00 in0.0 mm 0.00 in0.0 mm 0.00 in0.0 mm
06:59 AM 56.3°F13.5°C 83.8°F28.8°C - 4.3 mph S6.9 kmh S 5.3 mph8.5 kmh 30.19 in1022.4 mb 0.00 in0.0 mm 0.00 in0.0 mm 0.00 in0.0 mm
07:04 AM 56.3°F13.5°C 83.8°F28.8°C - 3.9 mph SSW6.3 kmh SSW 4.4 mph7.1 kmh 30.19 in1022.4 mb 0.00 in0.0 mm 0.00 in0.0 mm 0.00 in0.0 mm
07:09 AM 56.5°F13.6°C 83.9°F28.8°C - 3.5 mph SSW5.6 kmh SSW 4.2 mph6.8 kmh 30.19 in1022.4 mb 0.00 in0.0 mm 0.00 in0.0 mm 0.00 in0.0 mm
07:14 AM 56.6°F13.7°C 84.1°F28.9°C - 4.1 mph S6.6 kmh S 4.8 mph7.7 kmh 30.20 in1022.7 mb 0.00 in0.0 mm 0.00 in0.0 mm 0.00 in0.0 mm
07:19 AM 56.7°F13.7°C 84.2°F29.0°C - 4.1 mph SSE6.6 kmh SSE 5.1 mph8.2 kmh 30.19 in1022.4 mb 0.00 in0.0 mm 0.00 in0.0 mm 0.00 in0.0 mm
07:24 AM 56.7°F13.7°C 84.1°F28.9°C - 3.6 mph SSW5.8 kmh SSW 4.6 mph7.4 kmh 30.20 in1022.7 mb 0.00 in0.0 mm 0.00 in0.0 mm 0.00 in0.0 mm
07:29 AM 57.0°F13.9°C 84.6°F29.2°C - 3.8 mph SSW6.1 kmh SSW 4.8 mph7.7 kmh 30.20 in1022.7 mb 0.00 in0.0 mm 0.00 in0.0 mm 0.00 in0.0 mm
07:34 AM 57.1°F13.9°C 84.7°F29.3°C - 3.7 mph SSW6.0 kmh SSW 5.3 mph8.5 kmh 30.20 in1022.7 mb 0.00 in0.0 mm 0.00 in0.0 mm 0.00 in0.0 mm
07:39 AM 57.3°F14.1°C 84.9°F29.4°C - 3.2 mph SSW5.1 kmh SSW 4.2 mph6.8 kmh 30.20 in1022.7 mb 0.00 in0.0 mm 0.00 in0.0 mm 0.00 in0.0 mm
07:44 AM 57.7°F14.3°C 85.2°F29.6°C - 2.4 mph SW3.9 kmh SW 3.2 mph5.1 kmh 30.20 in1022.7 mb 0.00 in0.0 mm 0.00 in0.0 mm 0.00 in0.0 mm
07:49 AM 58.1°F14.5°C 85.7°F29.8°C - 3.7 mph SSW6.0 kmh SSW 4.7 mph7.6 kmh 30.20 in1022.7 mb 0.00 in0.0 mm 0.00 in0.0 mm 0.00 in0.0 mm
07:54 AM 58.4°F14.7°C 86.1°F30.1°C - 4.6 mph SW7.4 kmh SW 5.6 mph9.0 kmh 30.20 in1022.7 mb 0.00 in0.0 mm 0.00 in0.0 mm 0.00 in0.0 mm
07:59 AM 58.7°F14.8°C 86.4°F30.2°C - 4.4 mph SSW7.1 kmh SSW 5.6 mph9.0 kmh 30.20 in1022.7 mb 0.00 in0.0 mm 0.00 in0.0 mm 0.00 in0.0 mm
08:04 AM 59.0°F15.0°C 86.8°F30.4°C - 4.7 mph SSW7.6 kmh SSW 6.3 mph10.1 kmh 30.20 in1022.7 mb 0.00 in0.0 mm 0.00 in0.0 mm 0.00 in0.0 mm
08:10 AM 59.0°F15.0°C 86.7°F30.4°C - 6.1 mph SW9.8 kmh SW 7.6 mph12.2 kmh 30.20 in1022.7 mb 0.00 in0.0 mm 0.00 in0.0 mm 0.00 in0.0 mm
08:14 AM 59.1°F15.1°C 86.8°F30.4°C - 5.5 mph SW8.9 kmh SW 7.0 mph11.3 kmh 30.20 in1022.7 mb 0.00 in0.0 mm 0.00 in0.0 mm 0.00 in0.0 mm
08:19 AM 59.2°F15.1°C 86.9°F30.5°C - 5.0 mph S8.0 kmh S 6.7 mph10.8 kmh 30.21 in1023.0 mb 0.00 in0.0 mm 0.00 in0.0 mm 0.00 in0.0 mm
08:24 AM 59.5°F15.3°C 87.4°F30.8°C - 3.5 mph SW5.6 kmh SW 5.3 mph8.5 kmh 30.20 in1022.7 mb 0.00 in0.0 mm 0.00 in0.0 mm 0.00 in0.0 mm
08:29 AM 59.7°F15.4°C 87.6°F30.9°C - 4.0 mph SSW6.4 kmh SSW 5.4 mph8.7 kmh 30.21 in1023.0 mb 0.00 in0.0 mm 0.00 in0.0 mm 0.00 in0.0 mm
08:34 AM 60.0°F15.6°C 87.9°F31.1°C - 3.0 mph SW4.8 kmh SW 4.9 mph7.9 kmh 30.21 in1023.0 mb 0.00 in0.0 mm 0.00 in0.0 mm 0.00 in0.0 mm
08:39 AM 60.2°F15.7°C 88.0°F31.1°C - 4.0 mph SSW6.4 kmh SSW 5.3 mph8.5 kmh 30.20 in1022.7 mb 0.00 in0.0 mm 0.00 in0.0 mm 0.00 in0.0 mm
08:44 AM 60.3°F15.7°C 88.2°F31.2°C - 3.8 mph SSW6.1 kmh SSW 4.9 mph7.9 kmh 30.21 in1023.0 mb 0.00 in0.0 mm 0.00 in0.0 mm 0.00 in0.0 mm
08:49 AM 60.5°F15.8°C 88.4°F31.3°C - 4.9 mph SSW7.9 kmh SSW 5.9 mph9.5 kmh 30.21 in1023.0 mb 0.00 in0.0 mm 0.00 in0.0 mm 0.00 in0.0 mm
08:54 AM 60.6°F15.9°C 88.6°F31.4°C - 4.4 mph SSW7.1 kmh SSW 6.0 mph9.7 kmh 30.21 in1023.0 mb 0.00 in0.0 mm 0.00 in0.0 mm 0.00 in0.0 mm
08:59 AM 60.6°F15.9°C 88.6°F31.4°C - 4.0 mph SW6.4 kmh SW 5.3 mph8.5 kmh 30.21 in1023.0 mb 0.00 in0.0 mm 0.00 in0.0 mm 0.00 in0.0 mm
09:04 AM 60.5°F15.8°C 88.4°F31.3°C - 5.4 mph SSW8.7 kmh SSW 6.4 mph10.3 kmh 30.21 in1023.0 mb 0.00 in0.0 mm 0.00 in0.0 mm 0.00 in0.0 mm
09:09 AM 60.3°F15.7°C 88.3°F31.3°C - 4.5 mph SW7.2 kmh SW 5.6 mph9.0 kmh 30.21 in1023.0 mb 0.00 in0.0 mm 0.00 in0.0 mm 0.00 in0.0 mm
09:14 AM 60.2°F15.7°C 88.0°F31.1°C - 3.3 mph SSW5.3 kmh SSW 5.1 mph8.2 kmh 30.21 in1023.0 mb 0.00 in0.0 mm 0.00 in0.0 mm 0.00 in0.0 mm
09:19 AM 60.2°F15.7°C 88.2°F31.2°C - 4.2 mph SW6.8 kmh SW 5.2 mph8.4 kmh 30.21 in1023.0 mb 0.00 in0.0 mm 0.00 in0.0 mm 0.00 in0.0 mm
09:24 AM 60.0°F15.6°C 87.8°F31.0°C - 4.4 mph SSW7.1 kmh SSW 5.3 mph8.5 kmh 30.21 in1023.0 mb 0.00 in0.0 mm 0.00 in0.0 mm 0.00 in0.0 mm
09:29 AM 60.1°F15.6°C 88.1°F31.2°C - 3.5 mph SSW5.6 kmh SSW 4.8 mph7.7 kmh 30.21 in1023.0 mb 0.00 in0.0 mm 0.00 in0.0 mm 0.00 in0.0 mm
09:34 AM 60.0°F15.6°C 87.9°F31.1°C - 3.6 mph WSW5.8 kmh WSW 4.7 mph7.6 kmh 30.21 in1023.0 mb 0.00 in0.0 mm 0.00 in0.0 mm 0.00 in0.0 mm
09:39 AM 59.9°F15.5°C 87.7°F30.9°C - 3.0 mph SW4.8 kmh SW 3.9 mph6.3 kmh 30.22 in1023.4 mb 0.00 in0.0 mm 0.00 in0.0 mm 0.00 in0.0 mm
09:44 AM 59.8°F15.4°C 87.7°F30.9°C - 2.8 mph SW4.5 kmh SW 3.8 mph6.1 kmh 30.22 in1023.4 mb 0.00 in0.0 mm 0.00 in0.0 mm 0.00 in0.0 mm
09:49 AM 59.8°F15.4°C 87.7°F30.9°C - 2.9 mph WSW4.7 kmh WSW 3.8 mph6.1 kmh 30.22 in1023.4 mb 0.00 in0.0 mm 0.00 in0.0 mm 0.00 in0.0 mm
09:54 AM 59.9°F15.5°C 87.7°F30.9°C - 2.0 mph WSW3.2 kmh WSW 2.4 mph3.9 kmh 30.22 in1023.4 mb 0.00 in0.0 mm 0.00 in0.0 mm 0.00 in0.0 mm
09:59 AM 60.0°F15.6°C 87.8°F31.0°C - 0.2 mph WSW0.3 kmh WSW 1.0 mph1.6 kmh 30.22 in1023.4 mb 0.00 in0.0 mm 0.00 in0.0 mm 0.00 in0.0 mm
10:04 AM 60.0°F15.6°C 87.9°F31.1°C - 0.7 mph SSW1.1 kmh SSW 1.5 mph2.4 kmh 30.22 in1023.4 mb 0.00 in0.0 mm 0.00 in0.0 mm 0.00 in0.0 mm
10:09 AM 60.1°F15.6°C 88.1°F31.2°C - 2.2 mph SW3.5 kmh SW 2.9 mph4.7 kmh 30.22 in1023.4 mb 0.00 in0.0 mm 0.00 in0.0 mm 0.00 in0.0 mm
10:14 AM 60.0°F15.6°C 87.9°F31.1°C - 2.1 mph SSW3.4 kmh SSW 3.0 mph4.8 kmh 30.22 in1023.4 mb 0.00 in0.0 mm 0.00 in0.0 mm 0.00 in0.0 mm
10:19 AM 60.0°F15.6°C 87.9°F31.1°C - 2.0 mph SSW3.2 kmh SSW 3.0 mph4.8 kmh 30.22 in1023.4 mb 0.00 in0.0 mm 0.00 in0.0 mm 0.00 in0.0 mm
10:24 AM 60.0°F15.6°C 87.9°F31.1°C - 2.5 mph SW4.0 kmh SW 3.4 mph5.5 kmh 30.22 in1023.4 mb 0.00 in0.0 mm 0.00 in0.0 mm 0.00 in0.0 mm
10:29 AM 60.0°F15.6°C 87.8°F31.0°C - 2.5 mph SW4.0 kmh SW 3.7 mph6.0 kmh 30.22 in1023.4 mb 0.00 in0.0 mm 0.00 in0.0 mm 0.00 in0.0 mm
10:34 AM 60.0°F15.6°C 87.9°F31.1°C - 2.7 mph SW4.3 kmh SW 3.4 mph5.5 kmh 30.22 in1023.4 mb 0.00 in0.0 mm 0.00 in0.0 mm 0.00 in0.0 mm
10:39 AM 60.0°F15.6°C 87.9°F31.1°C - 2.7 mph SW4.3 kmh SW 3.4 mph5.5 kmh 30.22 in1023.4 mb 0.00 in0.0 mm 0.00 in0.0 mm 0.00 in0.0 mm
10:44 AM 60.0°F15.6°C 87.9°F31.1°C - 2.2 mph SW3.5 kmh SW 2.7 mph4.3 kmh 30.22 in1023.4 mb 0.00 in0.0 mm 0.00 in0.0 mm 0.00 in0.0 mm
10:49 AM 60.2°F15.7°C 88.0°F31.1°C - 1.7 mph SW2.7 kmh SW 2.2 mph3.5 kmh 30.22 in1023.4 mb 0.00 in0.0 mm 0.00 in0.0 mm 0.00 in0.0 mm
10:54 AM 60.2°F15.7°C 88.0°F31.1°C - 2.5 mph WSW4.0 kmh WSW 3.1 mph5.0 kmh 30.22 in1023.4 mb 0.00 in0.0 mm 0.00 in0.0 mm 0.00 in0.0 mm
10:59 AM 60.2°F15.7°C 88.0°F31.1°C - 2.6 mph W4.2 kmh W 3.1 mph5.0 kmh 30.22 in1023.4 mb 0.00 in0.0 mm 0.00 in0.0 mm 0.00 in0.0 mm
11:04 AM 60.2°F15.7°C 88.2°F31.2°C - 1.9 mph WSW3.1 kmh WSW 2.7 mph4.3 kmh 30.22 in1023.4 mb 0.00 in0.0 mm 0.00 in0.0 mm 0.00 in0.0 mm
11:09 AM 60.3°F15.7°C 88.2°F31.2°C - 1.7 mph WSW2.7 kmh WSW 2.2 mph3.5 kmh 30.22 in1023.4 mb 0.00 in0.0 mm 0.00 in0.0 mm 0.00 in0.0 mm
11:14 AM 60.5°F15.8°C 88.5°F31.4°C - Calm Calm 0.6 mph1.0 kmh 30.22 in1023.4 mb 0.00 in0.0 mm 0.00 in0.0 mm 0.00 in0.0 mm
11:19 AM 60.7°F15.9°C 88.7°F31.5°C - 0.9 mph WSW1.4 kmh WSW 1.3 mph2.1 kmh 30.22 in1023.4 mb 0.00 in0.0 mm 0.00 in0.0 mm 0.00 in0.0 mm
11:24 AM 60.7°F15.9°C 88.6°F31.4°C - 1.4 mph WSW2.3 kmh WSW 1.7 mph2.7 kmh 30.22 in1023.4 mb 0.00 in0.0 mm 0.00 in0.0 mm 0.00 in0.0 mm
11:29 AM 61.0°F16.1°C 88.9°F31.6°C - 2.7 mph WNW4.3 kmh WNW 3.3 mph5.3 kmh 30.22 in1023.4 mb 0.00 in0.0 mm 0.00 in0.0 mm 0.00 in0.0 mm
11:34 AM 61.1°F16.2°C 89.2°F31.8°C - 4.6 mph WNW7.4 kmh WNW 5.3 mph8.5 kmh 30.22 in1023.4 mb 0.00 in0.0 mm 0.00 in0.0 mm 0.00 in0.0 mm
11:39 AM 61.1°F16.2°C 89.2°F31.8°C - 4.7 mph WNW7.6 kmh WNW 5.3 mph8.5 kmh 30.22 in1023.4 mb 0.00 in0.0 mm 0.00 in0.0 mm 0.00 in0.0 mm
11:44 AM 61.2°F16.2°C 89.3°F31.8°C - 4.3 mph WNW6.9 kmh WNW 5.0 mph8.0 kmh 30.22 in1023.4 mb 0.00 in0.0 mm 0.00 in0.0 mm 0.00 in0.0 mm
11:49 AM 61.2°F16.2°C 89.3°F31.8°C - 4.3 mph WNW6.9 kmh WNW 4.7 mph7.6 kmh 30.22 in1023.4 mb 0.00 in0.0 mm 0.00 in0.0 mm 0.00 in0.0 mm
11:54 AM 61.2°F16.2°C 89.3°F31.8°C - 4.0 mph WNW6.4 kmh WNW 4.4 mph7.1 kmh 30.22 in1023.4 mb 0.00 in0.0 mm 0.00 in0.0 mm 0.00 in0.0 mm
11:59 AM 61.1°F16.2°C 89.2°F31.8°C - 4.4 mph WNW7.1 kmh WNW 4.8 mph7.7 kmh 30.22 in1023.4 mb 0.00 in0.0 mm 0.00 in0.0 mm 0.00 in0.0 mm
12:04 PM 61.0°F16.1°C 89.1°F31.7°C - 4.5 mph WNW7.2 kmh WNW 4.9 mph7.9 kmh 30.23 in1023.7 mb 0.00 in0.0 mm 0.00 in0.0 mm 0.00 in0.0 mm
12:09 PM 60.8°F16.0°C 88.8°F31.6°C - 5.5 mph WNW8.9 kmh WNW 6.1 mph9.8 kmh 30.23 in1023.7 mb 0.00 in0.0 mm 0.00 in0.0 mm 0.00 in0.0 mm
12:14 PM 60.7°F15.9°C 88.7°F31.5°C - 5.3 mph WNW8.5 kmh WNW 5.7 mph9.2 kmh 30.23 in1023.7 mb 0.00 in0.0 mm 0.00 in0.0 mm 0.00 in0.0 mm
12:19 PM 60.7°F15.9°C 88.7°F31.5°C - 4.3 mph WNW6.9 kmh WNW 4.8 mph7.7 kmh 30.23 in1023.7 mb 0.00 in0.0 mm 0.00 in0.0 mm 0.00 in0.0 mm
12:24 PM 60.7°F15.9°C 88.7°F31.5°C - 3.1 mph WNW5.0 kmh WNW 3.7 mph6.0 kmh 30.23 in1023.7 mb 0.00 in0.0 mm 0.00 in0.0 mm 0.00 in0.0 mm
12:29 PM 60.7°F15.9°C 88.7°F31.5°C - 3.3 mph WNW5.3 kmh WNW 3.6 mph5.8 kmh 30.23 in1023.7 mb 0.00 in0.0 mm 0.00 in0.0 mm 0.00 in0.0 mm
12:34 PM 60.7°F15.9°C 88.7°F31.5°C - 3.1 mph WNW5.0 kmh WNW 3.5 mph5.6 kmh 30.23 in1023.7 mb 0.00 in0.0 mm 0.00 in0.0 mm 0.00 in0.0 mm
12:39 PM 60.7°F15.9°C 88.7°F31.5°C - 2.9 mph WNW4.7 kmh WNW 3.6 mph5.8 kmh 30.23 in1023.7 mb 0.00 in0.0 mm 0.00 in0.0 mm 0.00 in0.0 mm
12:44 PM 60.7°F15.9°C 88.7°F31.5°C - 5.1 mph WNW8.2 kmh WNW 5.7 mph9.2 kmh 30.23 in1023.7 mb 0.00 in0.0 mm 0.00 in0.0 mm 0.00 in0.0 mm
12:49 PM 60.8°F16.0°C 88.8°F31.6°C - 4.9 mph NW7.9 kmh NW 5.4 mph8.7 kmh 30.23 in1023.7 mb 0.00 in0.0 mm 0.00 in0.0 mm 0.00 in0.0 mm
12:54 PM 60.8°F16.0°C 88.8°F31.6°C - 5.4 mph NW8.7 kmh NW 5.8 mph9.3 kmh 30.23 in1023.7 mb 0.00 in0.0 mm 0.00 in0.0 mm 0.00 in0.0 mm
12:59 PM 60.8°F16.0°C 88.8°F31.6°C - 5.6 mph NW9.0 kmh NW 6.1 mph9.8 kmh 30.23 in1023.7 mb 0.00 in0.0 mm 0.00 in0.0 mm 0.00 in0.0 mm
01:04 PM 61.0°F16.1°C 89.1°F31.7°C - 4.3 mph NW6.9 kmh NW 4.8 mph7.7 kmh 30.23 in1023.7 mb 0.00 in0.0 mm 0.00 in0.0 mm 0.00 in0.0 mm
01:09 PM 61.0°F16.1°C 88.9°F31.6°C - 5.2 mph NW8.4 kmh NW 6.6 mph10.6 kmh 30.23 in1023.7 mb 0.00 in0.0 mm 0.00 in0.0 mm 0.00 in0.0 mm
01:14 PM 60.8°F16.0°C 88.8°F31.6°C - 5.2 mph W8.4 kmh W 6.4 mph10.3 kmh 30.23 in1023.7 mb 0.00 in0.0 mm 0.00 in0.0 mm 0.00 in0.0 mm
01:19 PM 60.7°F15.9°C 88.6°F31.4°C - 4.1 mph WSW6.6 kmh WSW 5.2 mph8.4 kmh 30.23 in1023.7 mb 0.00 in0.0 mm 0.00 in0.0 mm 0.00 in0.0 mm
01:24 PM 60.7°F15.9°C 88.7°F31.5°C - 3.8 mph W6.1 kmh W 4.5 mph7.2 kmh 30.23 in1023.7 mb 0.00 in0.0 mm 0.00 in0.0 mm 0.00 in0.0 mm
01:29 PM 60.7°F15.9°C 88.7°F31.5°C - 4.1 mph WSW6.6 kmh WSW 5.1 mph8.2 kmh 30.23 in1023.7 mb 0.00 in0.0 mm 0.00 in0.0 mm 0.00 in0.0 mm
01:34 PM 60.7°F15.9°C 88.7°F31.5°C - 5.5 mph W8.9 kmh W 6.4 mph10.3 kmh 30.23 in1023.7 mb 0.00 in0.0 mm 0.00 in0.0 mm 0.00 in0.0 mm
01:39 PM 60.7°F15.9°C 88.7°F31.5°C - 4.8 mph WSW7.7 kmh WSW 5.6 mph9.0 kmh 30.23 in1023.7 mb 0.00 in0.0 mm 0.00 in0.0 mm 0.00 in0.0 mm
01:44 PM 60.6°F15.9°C 88.6°F31.4°C - 4.1 mph WSW6.6 kmh WSW 5.1 mph8.2 kmh 30.23 in1023.7 mb 0.00 in0.0 mm 0.00 in0.0 mm 0.00 in0.0 mm
01:49 PM 60.7°F15.9°C 88.6°F31.4°C - 2.1 mph WSW3.4 kmh WSW 3.7 mph6.0 kmh 30.23 in1023.7 mb 0.00 in0.0 mm 0.00 in0.0 mm 0.00 in0.0 mm
01:54 PM 60.9°F16.1°C 89.0°F31.7°C - Calm Calm -- 30.23 in1023.7 mb 0.00 in0.0 mm 0.00 in0.0 mm 0.00 in0.0 mm
01:59 PM 61.1°F16.2°C 89.2°F31.8°C - 0.9 mph W1.4 kmh W 1.8 mph2.9 kmh 30.23 in1023.7 mb 0.00 in0.0 mm 0.00 in0.0 mm 0.00 in0.0 mm
02:04 PM 61.2°F16.2°C 89.2°F31.8°C - 1.0 mph W1.6 kmh W 1.6 mph2.6 kmh 30.23 in1023.7 mb 0.00 in0.0 mm 0.00 in0.0 mm 0.00 in0.0 mm
02:09 PM 61.2°F16.2°C 89.3°F31.8°C - 2.5 mph W4.0 kmh W 3.2 mph5.1 kmh 30.23 in1023.7 mb 0.00 in0.0 mm 0.00 in0.0 mm 0.00 in0.0 mm
02:14 PM 61.2°F16.2°C 89.3°F31.8°C - 3.5 mph WSW5.6 kmh WSW 4.2 mph6.8 kmh 30.23 in1023.7 mb 0.00 in0.0 mm 0.00 in0.0 mm 0.00 in0.0 mm
02:19 PM 61.1°F16.2°C 89.2°F31.8°C - 3.2 mph WSW5.1 kmh WSW 4.0 mph6.4 kmh 30.23 in1023.7 mb 0.00 in0.0 mm 0.00 in0.0 mm 0.00 in0.0 mm
02:24 PM 61.1°F16.2°C 89.2°F31.8°C - 4.0 mph WSW6.4 kmh WSW 5.1 mph8.2 kmh 30.23 in1023.7 mb 0.00 in0.0 mm 0.00 in0.0 mm 0.00 in0.0 mm
02:29 PM 61.1°F16.2°C 89.2°F31.8°C - 3.0 mph SW4.8 kmh SW 4.4 mph7.1 kmh 30.23 in1023.7 mb 0.00 in0.0 mm 0.00 in0.0 mm 0.00 in0.0 mm
02:34 PM 61.2°F16.2°C 89.2°F31.8°C - 3.3 mph WSW5.3 kmh WSW 4.5 mph7.2 kmh 30.23 in1023.7 mb 0.00 in0.0 mm 0.00 in0.0 mm 0.00 in0.0 mm
02:39 PM 61.2°F16.2°C 89.3°F31.8°C - 3.7 mph WSW6.0 kmh WSW 4.3 mph6.9 kmh 30.23 in1023.7 mb 0.00 in0.0 mm 0.00 in0.0 mm 0.00 in0.0 mm
02:44 PM 61.1°F16.2°C 89.2°F31.8°C - 4.4 mph WSW7.1 kmh WSW 5.2 mph8.4 kmh 30.24 in1024.0 mb 0.00 in0.0 mm 0.00 in0.0 mm 0.00 in0.0 mm
02:49 PM 61.1°F16.2°C 89.2°F31.8°C - 3.8 mph WSW6.1 kmh WSW 4.8 mph7.7 kmh 30.24 in1024.0 mb 0.00 in0.0 mm 0.00 in0.0 mm 0.00 in0.0 mm
02:54 PM 61.2°F16.2°C 89.3°F31.8°C - 3.6 mph WSW5.8 kmh WSW 4.4 mph7.1 kmh 30.24 in1024.0 mb 0.00 in0.0 mm 0.00 in0.0 mm 0.00 in0.0 mm
02:59 PM 61.2°F16.2°C 89.3°F31.8°C - 4.4 mph WSW7.1 kmh WSW 5.4 mph8.7 kmh 30.24 in1024.0 mb 0.00 in0.0 mm 0.00 in0.0 mm 0.00 in0.0 mm
03:04 PM 61.4°F16.3°C 89.5°F31.9°C - 4.7 mph WSW7.6 kmh WSW 6.1 mph9.8 kmh 30.24 in1024.0 mb 0.00 in0.0 mm 0.00 in0.0 mm 0.00 in0.0 mm
03:10 PM 61.5°F16.4°C 89.6°F32.0°C - 4.3 mph WSW6.9 kmh WSW 5.5 mph8.9 kmh 30.24 in1024.0 mb 0.00 in0.0 mm 0.00 in0.0 mm 0.00 in0.0 mm
03:14 PM 61.5°F16.4°C 89.6°F32.0°C - 4.5 mph WSW7.2 kmh WSW 5.9 mph9.5 kmh 30.24 in1024.0 mb 0.00 in0.0 mm 0.00 in0.0 mm 0.00 in0.0 mm
03:19 PM 61.5°F16.4°C 89.6°F32.0°C - 4.8 mph WSW7.7 kmh WSW 6.2 mph10.0 kmh 30.24 in1024.0 mb 0.00 in0.0 mm 0.00 in0.0 mm 0.00 in0.0 mm
03:24 PM 61.4°F16.3°C 89.5°F31.9°C - 4.6 mph WSW7.4 kmh WSW 5.6 mph9.0 kmh 30.24 in1024.0 mb 0.00 in0.0 mm 0.00 in0.0 mm 0.00 in0.0 mm
03:29 PM 61.2°F16.2°C 89.2°F31.8°C - 3.3 mph SSW5.3 kmh SSW 4.5 mph7.2 kmh 30.24 in1024.0 mb 0.00 in0.0 mm 0.00 in0.0 mm 0.00 in0.0 mm
03:34 PM 61.2°F16.2°C 89.3°F31.8°C - 4.5 mph WSW7.2 kmh WSW 5.5 mph8.9 kmh 30.24 in1024.0 mb 0.00 in0.0 mm 0.00 in0.0 mm 0.00 in0.0 mm
03:39 PM 61.3°F16.3°C 89.3°F31.8°C - 4.9 mph WSW7.9 kmh WSW 6.1 mph9.8 kmh 30.24 in1024.0 mb 0.00 in0.0 mm 0.00 in0.0 mm 0.00 in0.0 mm
03:44 PM 61.4°F16.3°C 89.5°F31.9°C - 4.6 mph WSW7.4 kmh WSW 5.9 mph9.5 kmh 30.24 in1024.0 mb 0.00 in0.0 mm 0.00 in0.0 mm 0.00 in0.0 mm
03:49 PM 61.5°F16.4°C 89.6°F32.0°C - 3.8 mph SW6.1 kmh SW 4.9 mph7.9 kmh 30.24 in1024.0 mb 0.00 in0.0 mm 0.00 in0.0 mm 0.00 in0.0 mm
03:54 PM 61.7°F16.5°C 89.9°F32.2°C - 2.6 mph WSW4.2 kmh WSW 3.6 mph5.8 kmh 30.24 in1024.0 mb 0.00 in0.0 mm 0.00 in0.0 mm 0.00 in0.0 mm
03:59 PM 61.7°F16.5°C 89.9°F32.2°C - 2.9 mph WSW4.7 kmh WSW 3.6 mph5.8 kmh 30.24 in1024.0 mb 0.00 in0.0 mm 0.00 in0.0 mm 0.00 in0.0 mm
04:04 PM 61.9°F16.6°C 90.0°F32.2°C - 2.9 mph SW4.7 kmh SW 4.1 mph6.6 kmh 30.24 in1024.0 mb 0.00 in0.0 mm 0.00 in0.0 mm 0.00 in0.0 mm
04:09 PM 62.1°F16.7°C 90.3°F32.4°C - 3.1 mph SW5.0 kmh SW 4.0 mph6.4 kmh 30.24 in1024.0 mb 0.00 in0.0 mm 0.00 in0.0 mm 0.00 in0.0 mm
04:14 PM 62.2°F16.8°C 90.4°F32.4°C - 3.2 mph SW5.1 kmh SW 4.2 mph6.8 kmh 30.24 in1024.0 mb 0.00 in0.0 mm 0.00 in0.0 mm 0.00 in0.0 mm
04:19 PM 62.2°F16.8°C 90.3°F32.4°C - 2.2 mph SSW3.5 kmh SSW 3.7 mph6.0 kmh 30.24 in1024.0 mb 0.00 in0.0 mm 0.00 in0.0 mm 0.00 in0.0 mm
04:24 PM 62.3°F16.8°C 90.5°F32.5°C - 3.4 mph WSW5.5 kmh WSW 4.6 mph7.4 kmh 30.24 in1024.0 mb 0.00 in0.0 mm 0.00 in0.0 mm 0.00 in0.0 mm
04:29 PM 62.3°F16.8°C 90.5°F32.5°C - 3.6 mph WSW5.8 kmh WSW 4.3 mph6.9 kmh 30.24 in1024.0 mb 0.00 in0.0 mm 0.00 in0.0 mm 0.00 in0.0 mm
04:34 PM 62.2°F16.8°C 90.4°F32.4°C - 5.1 mph NW8.2 kmh NW 6.3 mph10.1 kmh 30.24 in1024.0 mb 0.00 in0.0 mm 0.00 in0.0 mm 0.00 in0.0 mm
04:39 PM 62.2°F16.8°C 90.4°F32.4°C - 10.8 mph NNW17.4 kmh NNW 11.6 mph18.7 kmh 30.24 in1024.0 mb 0.00 in0.0 mm 0.00 in0.0 mm 0.00 in0.0 mm
04:44 PM 62.0°F16.7°C 90.1°F32.3°C - 11.6 mph NNW18.7 kmh NNW 12.9 mph20.8 kmh 30.24 in1024.0 mb 0.00 in0.0 mm 0.00 in0.0 mm 0.00 in0.0 mm
04:49 PM 61.8°F16.6°C 90.0°F32.2°C - 11.0 mph NNW17.7 kmh NNW 12.1 mph19.5 kmh 30.24 in1024.0 mb 0.00 in0.0 mm 0.00 in0.0 mm 0.00 in0.0 mm
04:54 PM 61.9°F16.6°C 90.1°F32.3°C - 12.2 mph NNW19.6 kmh NNW 13.8 mph22.2 kmh 30.24 in1024.0 mb 0.00 in0.0 mm 0.00 in0.0 mm 0.00 in0.0 mm
04:59 PM 61.8°F16.6°C 90.0°F32.2°C - 12.0 mph N19.3 kmh N 13.5 mph21.7 kmh 30.24 in1024.0 mb 0.00 in0.0 mm 0.00 in0.0 mm 0.00 in0.0 mm
05:04 PM 61.7°F16.5°C 89.9°F32.2°C - 12.4 mph N20.0 kmh N 13.9 mph22.4 kmh 30.24 in1024.0 mb 0.00 in0.0 mm 0.00 in0.0 mm 0.00 in0.0 mm
05:09 PM 61.5°F16.4°C 89.5°F31.9°C - 12.2 mph N19.6 kmh N 13.8 mph22.2 kmh 30.24 in1024.0 mb 0.00 in0.0 mm 0.00 in0.0 mm 0.00 in0.0 mm
05:14 PM 61.6°F16.4°C 89.7°F32.1°C - 11.8 mph N19.0 kmh N 13.2 mph21.2 kmh 30.24 in1024.0 mb 0.00 in0.0 mm 0.00 in0.0 mm 0.00 in0.0 mm
05:19 PM 61.6°F16.4°C 89.7°F32.1°C - 10.6 mph N17.1 kmh N 11.8 mph19.0 kmh 30.24 in1024.0 mb 0.00 in0.0 mm 0.00 in0.0 mm 0.00 in0.0 mm
05:24 PM 61.5°F16.4°C 89.6°F32.0°C - 10.7 mph N17.2 kmh N 11.7 mph18.8 kmh 30.25 in1024.4 mb 0.00 in0.0 mm 0.00 in0.0 mm 0.00 in0.0 mm
05:29 PM 61.5°F16.4°C 89.5°F31.9°C - 10.5 mph N16.9 kmh N 11.7 mph18.8 kmh 30.25 in1024.4 mb 0.00 in0.0 mm 0.00 in0.0 mm 0.00 in0.0 mm
05:34 PM 61.4°F16.3°C 89.5°F31.9°C - 10.6 mph N17.1 kmh N 11.7 mph18.8 kmh 30.25 in1024.4 mb 0.00 in0.0 mm 0.00 in0.0 mm 0.00 in0.0 mm
05:39 PM 61.4°F16.3°C 89.4°F31.9°C - 9.4 mph N15.1 kmh N 10.8 mph17.4 kmh 30.25 in1024.4 mb 0.00 in0.0 mm 0.00 in0.0 mm 0.00 in0.0 mm
05:44 PM 61.5°F16.4°C 89.6°F32.0°C - 9.0 mph N14.5 kmh N 10.2 mph16.4 kmh 30.25 in1024.4 mb 0.00 in0.0 mm 0.00 in0.0 mm 0.00 in0.0 mm
05:49 PM 61.4°F16.3°C 89.5°F31.9°C - 9.1 mph N14.6 kmh N 10.3 mph16.6 kmh 30.25 in1024.4 mb 0.00 in0.0 mm 0.00 in0.0 mm 0.00 in0.0 mm
05:54 PM 61.2°F16.2°C 89.3°F31.8°C - 9.5 mph N15.3 kmh N 10.6 mph17.1 kmh 30.26 in1024.7 mb 0.00 in0.0 mm 0.00 in0.0 mm 0.00 in0.0 mm
05:59 PM 61.2°F16.2°C 89.3°F31.8°C - 8.8 mph N14.2 kmh N 10.0 mph16.1 kmh 30.26 in1024.7 mb 0.00 in0.0 mm 0.00 in0.0 mm 0.00 in0.0 mm
06:04 PM 61.1°F16.2°C 89.2°F31.8°C - 8.5 mph N13.7 kmh N 9.4 mph15.1 kmh 30.26 in1024.7 mb 0.00 in0.0 mm 0.00 in0.0 mm 0.00 in0.0 mm
06:09 PM 61.1°F16.2°C 89.2°F31.8°C - 7.2 mph N11.6 kmh N 8.1 mph13.0 kmh 30.26 in1024.7 mb 0.00 in0.0 mm 0.00 in0.0 mm 0.00 in0.0 mm
06:14 PM 61.1°F16.2°C 89.2°F31.8°C - 7.0 mph N11.3 kmh N 7.9 mph12.7 kmh 30.27 in1025.1 mb 0.00 in0.0 mm 0.00 in0.0 mm 0.00 in0.0 mm
06:19 PM 61.1°F16.2°C 89.2°F31.8°C - 7.1 mph N11.4 kmh N 8.0 mph12.9 kmh 30.27 in1025.1 mb 0.00 in0.0 mm 0.00 in0.0 mm 0.00 in0.0 mm
06:24 PM 61.0°F16.1°C 89.1°F31.7°C - 7.1 mph N11.4 kmh N 7.8 mph12.6 kmh 30.27 in1025.1 mb 0.00 in0.0 mm 0.00 in0.0 mm 0.00 in0.0 mm
06:29 PM 61.0°F16.1°C 88.9°F31.6°C - 6.6 mph N10.6 kmh N 7.5 mph12.1 kmh 30.27 in1025.1 mb 0.00 in0.0 mm 0.00 in0.0 mm 0.00 in0.0 mm
06:34 PM 61.1°F16.2°C 89.2°F31.8°C - 6.4 mph N10.3 kmh N 6.9 mph11.1 kmh 30.27 in1025.1 mb 0.00 in0.0 mm 0.00 in0.0 mm 0.00 in0.0 mm
06:39 PM 60.9°F16.1°C 89.0°F31.7°C - 6.6 mph N10.6 kmh N 7.4 mph11.9 kmh 30.27 in1025.1 mb 0.00 in0.0 mm 0.00 in0.0 mm 0.00 in0.0 mm
06:44 PM 60.7°F15.9°C 88.7°F31.5°C - 5.8 mph N9.3 kmh N 6.4 mph10.3 kmh 30.27 in1025.1 mb 0.00 in0.0 mm 0.00 in0.0 mm 0.00 in0.0 mm
06:49 PM 60.7°F15.9°C 88.7°F31.5°C - 5.4 mph N8.7 kmh N 6.0 mph9.7 kmh 30.27 in1025.1 mb 0.00 in0.0 mm 0.00 in0.0 mm 0.00 in0.0 mm
06:54 PM 60.7°F15.9°C 88.7°F31.5°C - 5.5 mph N8.9 kmh N 6.0 mph9.7 kmh 30.28 in1025.4 mb 0.00 in0.0 mm 0.00 in0.0 mm 0.00 in0.0 mm
07:00 PM 60.6°F15.9°C 88.6°F31.4°C - 5.4 mph N8.7 kmh N 5.9 mph9.5 kmh 30.28 in1025.4 mb 0.00 in0.0 mm 0.00 in0.0 mm 0.00 in0.0 mm
07:04 PM 60.5°F15.8°C 88.5°F31.4°C - 5.3 mph N8.5 kmh N 6.0 mph9.7 kmh 30.28 in1025.4 mb 0.00 in0.0 mm 0.00 in0.0 mm 0.00 in0.0 mm
07:09 PM 60.5°F15.8°C 88.5°F31.4°C - 5.2 mph N8.4 kmh N 5.5 mph8.9 kmh 30.28 in1025.4 mb 0.00 in0.0 mm 0.00 in0.0 mm 0.00 in0.0 mm
07:14 PM 60.6°F15.9°C 88.6°F31.4°C - 5.2 mph NNW8.4 kmh NNW 5.7 mph9.2 kmh 30.28 in1025.4 mb 0.00 in0.0 mm 0.00 in0.0 mm 0.00 in0.0 mm
07:20 PM 60.6°F15.9°C 88.6°F31.4°C - 5.3 mph NNW8.5 kmh NNW 5.8 mph9.3 kmh 30.28 in1025.4 mb 0.00 in0.0 mm 0.00 in0.0 mm 0.00 in0.0 mm
07:24 PM 60.3°F15.7°C 88.3°F31.3°C - 6.1 mph NNW9.8 kmh NNW 6.7 mph10.8 kmh 30.28 in1025.4 mb 0.00 in0.0 mm 0.00 in0.0 mm 0.00 in0.0 mm
07:29 PM 60.2°F15.7°C 88.2°F31.2°C - 5.5 mph NW8.9 kmh NW 6.5 mph10.5 kmh 30.29 in1025.7 mb 0.00 in0.0 mm 0.00 in0.0 mm 0.00 in0.0 mm
07:35 PM 60.2°F15.7°C 88.2°F31.2°C - 6.7 mph NW10.8 kmh NW 7.5 mph12.1 kmh 30.29 in1025.7 mb 0.00 in0.0 mm 0.00 in0.0 mm 0.00 in0.0 mm
07:39 PM 60.1°F15.6°C 87.9°F31.1°C - 6.2 mph NW10.0 kmh NW 6.9 mph11.1 kmh 30.29 in1025.7 mb 0.00 in0.0 mm 0.00 in0.0 mm 0.00 in0.0 mm
07:44 PM 60.0°F15.6°C 87.9°F31.1°C - 6.8 mph NW10.9 kmh NW 7.5 mph12.1 kmh 30.29 in1025.7 mb 0.00 in0.0 mm 0.00 in0.0 mm 0.00 in0.0 mm
07:49 PM 59.9°F15.5°C 87.8°F31.0°C - 6.4 mph NW10.3 kmh NW 7.1 mph11.4 kmh 30.29 in1025.7 mb 0.00 in0.0 mm 0.00 in0.0 mm 0.00 in0.0 mm
07:54 PM 59.7°F15.4°C 87.6°F30.9°C - 6.7 mph NW10.8 kmh NW 7.2 mph11.6 kmh 30.29 in1025.7 mb 0.00 in0.0 mm 0.00 in0.0 mm 0.00 in0.0 mm
07:59 PM 59.7°F15.4°C 87.6°F30.9°C - 6.8 mph NW10.9 kmh NW 7.3 mph11.7 kmh 30.29 in1025.7 mb 0.00 in0.0 mm 0.00 in0.0 mm 0.00 in0.0 mm
08:04 PM 59.9°F15.5°C 87.8°F31.0°C - 6.8 mph NW10.9 kmh NW 7.4 mph11.9 kmh 30.29 in1025.7 mb 0.00 in0.0 mm 0.00 in0.0 mm 0.00 in0.0 mm
08:09 PM 59.6°F15.3°C 87.5°F30.8°C - 7.2 mph NW11.6 kmh NW 7.9 mph12.7 kmh 30.29 in1025.7 mb 0.00 in0.0 mm 0.00 in0.0 mm 0.00 in0.0 mm
08:14 PM 59.5°F15.3°C 87.4°F30.8°C - 6.1 mph NW9.8 kmh NW 6.7 mph10.8 kmh 30.29 in1025.7 mb 0.00 in0.0 mm 0.00 in0.0 mm 0.00 in0.0 mm
08:19 PM 59.4°F15.2°C 87.3°F30.7°C - 5.9 mph NW9.5 kmh NW 6.5 mph10.5 kmh 30.29 in1025.7 mb 0.00 in0.0 mm 0.00 in0.0 mm 0.00 in0.0 mm
08:24 PM 59.2°F15.1°C 87.0°F30.6°C - 6.8 mph NW10.9 kmh NW 7.4 mph11.9 kmh 30.30 in1026.1 mb 0.00 in0.0 mm 0.00 in0.0 mm 0.00 in0.0 mm
08:29 PM 59.1°F15.1°C 86.9°F30.5°C - 6.5 mph NW10.5 kmh NW 7.2 mph11.6 kmh 30.30 in1026.1 mb 0.00 in0.0 mm 0.00 in0.0 mm 0.00 in0.0 mm
08:34 PM 59.0°F15.0°C 86.8°F30.4°C - 7.2 mph WNW11.6 kmh WNW 7.9 mph12.7 kmh 30.30 in1026.1 mb 0.00 in0.0 mm 0.00 in0.0 mm 0.00 in0.0 mm
08:39 PM 58.7°F14.8°C 86.5°F30.3°C - 7.3 mph WNW11.7 kmh WNW 7.8 mph12.6 kmh 30.30 in1026.1 mb 0.00 in0.0 mm 0.00 in0.0 mm 0.00 in0.0 mm
08:44 PM 58.5°F14.7°C 86.2°F30.1°C - 6.7 mph WNW10.8 kmh WNW 7.6 mph12.2 kmh 30.30 in1026.1 mb 0.00 in0.0 mm 0.00 in0.0 mm 0.00 in0.0 mm
08:49 PM 58.3°F14.6°C 86.0°F30.0°C - 6.6 mph WNW10.6 kmh WNW 7.2 mph11.6 kmh 30.30 in1026.1 mb 0.00 in0.0 mm 0.00 in0.0 mm 0.00 in0.0 mm
08:54 PM 58.2°F14.6°C 85.8°F29.9°C - 6.9 mph WNW11.1 kmh WNW 7.4 mph11.9 kmh 30.30 in1026.1 mb 0.00 in0.0 mm 0.00 in0.0 mm 0.00 in0.0 mm
08:59 PM 58.1°F14.5°C 85.8°F29.9°C - 6.5 mph WNW10.5 kmh WNW 7.0 mph11.3 kmh 30.30 in1026.1 mb 0.00 in0.0 mm 0.00 in0.0 mm 0.00 in0.0 mm
09:04 PM 58.1°F14.5°C 85.8°F29.9°C - 5.9 mph NW9.5 kmh NW 6.5 mph10.5 kmh 30.30 in1026.1 mb 0.00 in0.0 mm 0.00 in0.0 mm 0.00 in0.0 mm
09:09 PM 58.0°F14.4°C 85.7°F29.8°C - 4.8 mph NW7.7 kmh NW 5.5 mph8.9 kmh 30.30 in1026.1 mb 0.00 in0.0 mm 0.00 in0.0 mm 0.00 in0.0 mm
09:14 PM 58.0°F14.4°C 85.6°F29.8°C - 4.2 mph NW6.8 kmh NW 5.1 mph8.2 kmh 30.30 in1026.1 mb 0.00 in0.0 mm 0.00 in0.0 mm 0.00 in0.0 mm
09:19 PM 57.8°F14.3°C 85.3°F29.6°C - 3.6 mph NW5.8 kmh NW 4.2 mph6.8 kmh 30.30 in1026.1 mb 0.00 in0.0 mm 0.00 in0.0 mm 0.00 in0.0 mm
09:24 PM 57.8°F14.3°C 85.5°F29.7°C - 3.3 mph NW5.3 kmh NW 4.0 mph6.4 kmh 30.30 in1026.1 mb 0.00 in0.0 mm 0.00 in0.0 mm 0.00 in0.0 mm
09:29 PM 57.7°F14.3°C 85.3°F29.6°C - 3.8 mph NW6.1 kmh NW 4.3 mph6.9 kmh 30.30 in1026.1 mb 0.00 in0.0 mm 0.00 in0.0 mm 0.00 in0.0 mm
09:34 PM 57.5°F14.2°C 85.1°F29.5°C - 3.4 mph WNW5.5 kmh WNW 4.0 mph6.4 kmh 30.30 in1026.1 mb 0.00 in0.0 mm 0.00 in0.0 mm 0.00 in0.0 mm
09:39 PM 57.3°F14.1°C 84.9°F29.4°C - 3.3 mph WNW5.3 kmh WNW 3.9 mph6.3 kmh 30.30 in1026.1 mb 0.00 in0.0 mm 0.00 in0.0 mm 0.00 in0.0 mm
09:44 PM 57.2°F14.0°C 84.8°F29.3°C - 3.8 mph WNW6.1 kmh WNW 4.5 mph7.2 kmh 30.30 in1026.1 mb 0.00 in0.0 mm 0.00 in0.0 mm 0.00 in0.0 mm
09:49 PM 57.1°F13.9°C 84.7°F29.3°C - 4.2 mph WNW6.8 kmh WNW 4.8 mph7.7 kmh 30.31 in1026.4 mb 0.00 in0.0 mm 0.00 in0.0 mm 0.00 in0.0 mm
09:54 PM 57.1°F13.9°C 84.7°F29.3°C - 4.7 mph WNW7.6 kmh WNW 5.2 mph8.4 kmh 30.31 in1026.4 mb 0.00 in0.0 mm 0.00 in0.0 mm 0.00 in0.0 mm
10:00 PM 57.2°F14.0°C 84.8°F29.3°C - 4.0 mph WNW6.4 kmh WNW 4.9 mph7.9 kmh 30.31 in1026.4 mb 0.00 in0.0 mm 0.00 in0.0 mm 0.00 in0.0 mm
10:04 PM 57.1°F13.9°C 84.7°F29.3°C - 3.5 mph WNW5.6 kmh WNW 4.2 mph6.8 kmh 30.31 in1026.4 mb 0.00 in0.0 mm 0.00 in0.0 mm 0.00 in0.0 mm
10:09 PM 57.0°F13.9°C 84.6°F29.2°C - 4.3 mph WNW6.9 kmh WNW 5.0 mph8.0 kmh 30.31 in1026.4 mb 0.00 in0.0 mm 0.00 in0.0 mm 0.00 in0.0 mm
10:14 PM 56.8°F13.8°C 84.3°F29.1°C - 5.8 mph WNW9.3 kmh WNW 6.5 mph10.5 kmh 30.31 in1026.4 mb 0.00 in0.0 mm 0.00 in0.0 mm 0.00 in0.0 mm
10:19 PM 56.8°F13.8°C 84.3°F29.1°C - 4.9 mph WNW7.9 kmh WNW 5.6 mph9.0 kmh 30.31 in1026.4 mb 0.00 in0.0 mm 0.00 in0.0 mm 0.00 in0.0 mm
10:24 PM 56.7°F13.7°C 84.2°F29.0°C - 4.1 mph WNW6.6 kmh WNW 4.9 mph7.9 kmh 30.31 in1026.4 mb 0.00 in0.0 mm 0.00 in0.0 mm 0.00 in0.0 mm
10:29 PM 56.7°F13.7°C 84.2°F29.0°C - 3.6 mph WNW5.8 kmh WNW 4.5 mph7.2 kmh 30.31 in1026.4 mb 0.00 in0.0 mm 0.00 in0.0 mm 0.00 in0.0 mm
10:34 PM 56.5°F13.6°C 83.9°F28.8°C - 2.7 mph WNW4.3 kmh WNW 3.7 mph6.0 kmh 30.31 in1026.4 mb 0.00 in0.0 mm 0.00 in0.0 mm 0.00 in0.0 mm
10:39 PM 56.4°F13.6°C 83.9°F28.8°C - 3.7 mph WNW6.0 kmh WNW 5.0 mph8.0 kmh 30.31 in1026.4 mb 0.00 in0.0 mm 0.00 in0.0 mm 0.00 in0.0 mm
10:44 PM 56.3°F13.5°C 83.8°F28.8°C - 3.3 mph WNW5.3 kmh WNW 4.5 mph7.2 kmh 30.31 in1026.4 mb 0.00 in0.0 mm 0.00 in0.0 mm 0.00 in0.0 mm
10:49 PM 56.2°F13.4°C 83.7°F28.7°C - 3.3 mph WNW5.3 kmh WNW 4.0 mph6.4 kmh 30.31 in1026.4 mb 0.00 in0.0 mm 0.00 in0.0 mm 0.00 in0.0 mm
10:54 PM 56.2°F13.4°C 83.7°F28.7°C - 4.0 mph WNW6.4 kmh WNW 5.1 mph8.2 kmh 30.31 in1026.4 mb 0.00 in0.0 mm 0.00 in0.0 mm 0.00 in0.0 mm
11:04 PM 56.2°F13.4°C 83.7°F28.7°C - 5.0 mph WNW8.0 kmh WNW 5.8 mph9.3 kmh 30.31 in1026.4 mb 0.00 in0.0 mm 0.00 in0.0 mm 0.00 in0.0 mm
11:09 PM 56.2°F13.4°C 83.7°F28.7°C - 4.1 mph WNW6.6 kmh WNW 5.1 mph8.2 kmh 30.31 in1026.4 mb 0.00 in0.0 mm 0.00 in0.0 mm 0.00 in0.0 mm
11:14 PM 56.1°F13.4°C 83.5°F28.6°C - 3.7 mph WNW6.0 kmh WNW 4.6 mph7.4 kmh 30.31 in1026.4 mb 0.00 in0.0 mm 0.00 in0.0 mm 0.00 in0.0 mm
11:19 PM 55.8°F13.2°C 83.2°F28.4°C - 3.2 mph WNW5.1 kmh WNW 4.2 mph6.8 kmh 30.31 in1026.4 mb 0.00 in0.0 mm 0.00 in0.0 mm 0.00 in0.0 mm
11:24 PM 55.7°F13.2°C 83.1°F28.4°C - 4.1 mph WNW6.6 kmh WNW 5.1 mph8.2 kmh 30.31 in1026.4 mb 0.00 in0.0 mm 0.00 in0.0 mm 0.00 in0.0 mm
11:29 PM 55.7°F13.2°C 83.0°F28.3°C - 3.9 mph WNW6.3 kmh WNW 4.9 mph7.9 kmh 30.31 in1026.4 mb 0.00 in0.0 mm 0.00 in0.0 mm 0.00 in0.0 mm
11:34 PM 55.7°F13.2°C 83.1°F28.4°C - 1.9 mph WNW3.1 kmh WNW 2.7 mph4.3 kmh 30.31 in1026.4 mb 0.00 in0.0 mm 0.00 in0.0 mm 0.00 in0.0 mm
11:39 PM 55.3°F12.9°C 82.6°F28.1°C - 1.7 mph WNW2.7 kmh WNW 2.4 mph3.9 kmh 30.31 in1026.4 mb 0.00 in0.0 mm 0.00 in0.0 mm 0.00 in0.0 mm
11:44 PM 55.0°F12.8°C 82.3°F27.9°C - 1.0 mph WNW1.6 kmh WNW 1.7 mph2.7 kmh 30.31 in1026.4 mb 0.00 in0.0 mm 0.00 in0.0 mm 0.00 in0.0 mm
11:49 PM 54.7°F12.6°C 82.0°F27.8°C - 0.1 mph WNW0.2 kmh WNW 0.3 mph0.5 kmh 30.32 in1026.8 mb 0.00 in0.0 mm 0.00 in0.0 mm 0.00 in0.0 mm
11:54 PM 54.4°F12.4°C 81.6°F27.6°C - Calm Calm -- 30.32 in1026.8 mb 0.00 in0.0 mm 0.00 in0.0 mm 0.00 in0.0 mm
11:59 PM 54.2°F12.3°C 81.4°F27.4°C - 0.2 mph WNW0.3 kmh WNW 0.7 mph1.1 kmh 30.32 in1026.8 mb 0.00 in0.0 mm 0.00 in0.0 mm 0.00 in0.0 mm